createdAt,value
2023-07-18T00:00:34.166Z,19.24
2023-07-18T00:03:01.426Z,19.34
2023-07-18T00:05:28.570Z,19.27
2023-07-18T00:07:55.784Z,19.19
2023-07-18T00:10:23.322Z,19.21
2023-07-18T00:12:51.232Z,19.23
2023-07-18T00:15:18.321Z,19.23
2023-07-18T00:17:45.489Z,19.18
2023-07-18T00:20:18.880Z,19.18
2023-07-18T00:22:49.937Z,19.18
2023-07-18T00:25:21.012Z,19.24
2023-07-18T00:27:52.859Z,19.15
2023-07-18T00:30:20.031Z,19.20
2023-07-18T00:32:47.086Z,19.10
2023-07-18T00:35:17.811Z,19.18
2023-07-18T00:37:45.685Z,19.22
2023-07-18T00:40:14.082Z,19.12
2023-07-18T00:42:46.697Z,19.14
2023-07-18T00:45:13.724Z,19.13
2023-07-18T00:47:42.965Z,19.18
2023-07-18T00:50:12.483Z,19.17
2023-07-18T00:52:42.095Z,19.15
2023-07-18T00:55:13.398Z,19.17
2023-07-18T00:57:42.058Z,19.15
2023-07-18T01:00:12.352Z,19.08
2023-07-18T01:02:41.409Z,19.06
2023-07-18T01:05:09.792Z,19.06
2023-07-18T01:07:37.478Z,19.03
2023-07-18T01:10:18.497Z,19.02
2023-07-18T01:12:46.289Z,19.06
2023-07-18T01:15:14.501Z,19.07
2023-07-18T01:17:48.369Z,19.11
2023-07-18T01:20:20.313Z,19.01
2023-07-18T01:22:49.508Z,19.07
2023-07-18T01:25:20.638Z,19.10
2023-07-18T01:27:49.799Z,19.10
2023-07-18T01:30:19.298Z,18.99
2023-07-18T01:32:50.087Z,19.05
2023-07-18T01:35:18.937Z,19.07
2023-07-18T01:37:46.129Z,19.00
2023-07-18T01:40:14.411Z,19.09
2023-07-18T01:42:41.955Z,19.03
2023-07-18T01:45:09.199Z,18.97
2023-07-18T01:47:36.156Z,19.08
2023-07-18T01:50:05.886Z,19.02
2023-07-18T01:52:33.594Z,19.01
2023-07-18T01:55:01.612Z,19.02
2023-07-18T01:57:34.050Z,19.05
2023-07-18T02:00:01.121Z,19.07
2023-07-18T02:02:31.057Z,18.94
2023-07-18T02:04:59.842Z,18.93
2023-07-18T02:07:27.071Z,18.94
2023-07-18T02:09:54.070Z,18.95
2023-07-18T02:12:20.893Z,18.93
2023-07-18T02:14:47.913Z,18.94
2023-07-18T02:17:14.963Z,18.95
2023-07-18T02:19:41.814Z,18.90
2023-07-18T02:22:08.736Z,18.95
2023-07-18T02:24:36.118Z,18.86
2023-07-18T02:27:03.054Z,18.81
2023-07-18T02:29:29.931Z,18.90
2023-07-18T02:31:56.832Z,18.89
2023-07-18T02:34:23.769Z,18.83
2023-07-18T02:36:50.733Z,18.78
2023-07-18T02:39:17.643Z,18.78
2023-07-18T02:41:44.794Z,18.72
2023-07-18T02:44:12.580Z,18.81
2023-07-18T02:46:39.580Z,18.82
2023-07-18T02:49:06.483Z,18.87
2023-07-18T02:51:33.371Z,18.81
2023-07-18T02:54:00.200Z,18.82
2023-07-18T02:56:27.026Z,18.79
2023-07-18T02:58:53.892Z,18.85
2023-07-18T03:01:21.112Z,18.73
2023-07-18T03:03:48.285Z,18.74
2023-07-18T03:06:18.355Z,18.78
2023-07-18T03:08:45.424Z,18.75
2023-07-18T03:11:12.434Z,18.82
2023-07-18T03:13:39.370Z,18.79
2023-07-18T03:16:09.157Z,18.93
2023-07-18T03:18:37.898Z,18.91
2023-07-18T03:21:05.046Z,18.88
2023-07-18T03:23:32.001Z,18.84
2023-07-18T03:25:58.858Z,18.95
2023-07-18T03:28:25.679Z,18.93
2023-07-18T03:30:52.565Z,18.81
2023-07-18T03:33:19.443Z,18.72
2023-07-18T03:35:46.257Z,18.79
2023-07-18T03:38:13.170Z,18.75
2023-07-18T03:40:40.052Z,18.79
2023-07-18T03:43:06.922Z,18.86
2023-07-18T03:45:34.666Z,18.94
2023-07-18T03:48:02.113Z,18.86
2023-07-18T03:50:29.049Z,18.75
2023-07-18T03:52:55.982Z,18.78
2023-07-18T03:55:23.043Z,18.88
2023-07-18T03:57:49.959Z,18.78
2023-07-18T04:00:19.714Z,18.70
2023-07-18T04:02:48.200Z,18.67
2023-07-18T04:05:18.161Z,18.73
2023-07-18T04:07:46.004Z,18.68
2023-07-18T04:10:13.326Z,18.65
2023-07-18T04:12:41.027Z,18.72
2023-07-18T04:15:09.043Z,18.58
2023-07-18T04:17:36.215Z,18.60
2023-07-18T04:20:06.777Z,18.55
2023-07-18T04:22:33.716Z,18.48
2023-07-18T04:25:00.570Z,18.51
2023-07-18T04:27:28.940Z,18.61
2023-07-18T04:29:57.914Z,18.62
2023-07-18T04:32:25.655Z,18.61
2023-07-18T04:34:52.883Z,18.75
2023-07-18T04:37:20.135Z,18.81
2023-07-18T04:39:46.956Z,18.85
2023-07-18T04:42:13.841Z,18.87
2023-07-18T04:44:40.705Z,18.64
2023-07-18T04:47:10.061Z,18.60
2023-07-18T04:49:37.290Z,18.70
2023-07-18T04:52:04.954Z,18.55
2023-07-18T04:54:31.801Z,18.69
2023-07-18T04:56:58.681Z,18.65
2023-07-18T04:59:25.696Z,18.58
2023-07-18T05:01:54.694Z,18.48
2023-07-18T05:04:21.783Z,18.46
2023-07-18T05:06:50.040Z,18.49
2023-07-18T05:09:18.617Z,18.57
2023-07-18T05:11:46.948Z,18.48
2023-07-18T05:14:13.786Z,18.34
2023-07-18T05:16:40.830Z,18.41
2023-07-18T05:19:07.722Z,18.52
2023-07-18T05:21:34.636Z,18.40
2023-07-18T05:24:01.454Z,18.32
2023-07-18T05:26:28.404Z,18.29
2023-07-18T05:28:55.343Z,18.30
2023-07-18T05:31:22.819Z,18.29
2023-07-18T05:33:50.225Z,18.35
2023-07-18T05:36:17.745Z,18.37
2023-07-18T05:38:46.550Z,18.34
2023-07-18T05:41:13.557Z,18.31
2023-07-18T05:43:40.627Z,18.37
2023-07-18T05:46:07.547Z,18.30
2023-07-18T05:48:34.588Z,18.34
2023-07-18T05:51:02.212Z,18.28
2023-07-18T05:53:29.182Z,18.44
2023-07-18T05:55:56.266Z,18.61
2023-07-18T05:58:23.183Z,18.55
2023-07-18T06:00:50.203Z,18.59
2023-07-18T06:03:17.270Z,18.50
2023-07-18T06:05:44.501Z,18.44
2023-07-18T06:08:11.917Z,18.51
2023-07-18T06:10:38.844Z,18.63
2023-07-18T06:13:06.271Z,18.66
2023-07-18T06:15:33.172Z,18.63
2023-07-18T06:18:00.873Z,18.68
2023-07-18T06:20:27.993Z,18.69
2023-07-18T06:22:56.089Z,18.77
2023-07-18T06:25:23.171Z,18.84
2023-07-18T06:27:50.088Z,18.87
2023-07-18T06:30:17.074Z,18.90
2023-07-18T06:32:44.276Z,18.95
2023-07-18T06:37:42.829Z,19.13
2023-07-18T06:40:12.459Z,19.19
2023-07-18T06:42:39.762Z,19.21
2023-07-18T06:45:07.779Z,19.28
2023-07-18T06:47:34.742Z,19.30
2023-07-18T06:50:01.765Z,19.36
2023-07-18T06:52:28.584Z,19.33
2023-07-18T06:54:56.216Z,19.34
2023-07-18T06:57:23.132Z,19.32
2023-07-18T06:59:50.511Z,19.37
2023-07-18T07:02:17.373Z,19.42
2023-07-18T07:04:44.245Z,19.45
2023-07-18T07:07:11.145Z,19.49
2023-07-18T07:09:38.009Z,19.57
2023-07-18T07:12:05.641Z,19.62
2023-07-18T07:14:32.525Z,19.70
2023-07-18T07:16:59.767Z,19.72
2023-07-18T07:19:26.796Z,19.75
2023-07-18T07:21:53.632Z,19.73
2023-07-18T07:24:20.560Z,19.76
2023-07-18T07:26:47.438Z,19.81
2023-07-18T07:29:16.811Z,19.86
2023-07-18T07:31:45.193Z,19.86
2023-07-18T07:34:12.024Z,19.88
2023-07-18T07:36:39.857Z,19.93
2023-07-18T07:39:06.694Z,19.96
2023-07-18T07:41:33.615Z,20.00
2023-07-18T07:44:00.537Z,20.02
2023-07-18T07:46:27.418Z,20.06
2023-07-18T07:48:54.278Z,20.13
2023-07-18T07:51:21.404Z,20.15
2023-07-18T07:53:48.505Z,20.17
2023-07-18T07:56:15.620Z,20.17
2023-07-18T07:58:45.653Z,20.20
2023-07-18T08:01:16.209Z,20.22
2023-07-18T08:03:43.697Z,20.26
2023-07-18T08:06:10.576Z,20.25
2023-07-18T08:08:37.396Z,20.27
2023-07-18T08:11:05.072Z,20.28
2023-07-18T08:13:32.088Z,20.39
2023-07-18T08:15:59.029Z,20.46
2023-07-18T08:18:26.021Z,20.56
2023-07-18T08:20:52.970Z,20.66
2023-07-18T08:23:19.867Z,20.75
2023-07-18T08:25:46.813Z,20.84
2023-07-18T08:28:13.676Z,20.93
2023-07-18T08:30:41.780Z,21.04
2023-07-18T08:33:10.575Z,21.14
2023-07-18T08:35:39.465Z,21.28
2023-07-18T08:38:06.776Z,21.34
2023-07-18T08:40:33.865Z,21.42
2023-07-18T08:43:00.951Z,21.52
2023-07-18T08:45:29.778Z,21.61
2023-07-18T08:47:57.900Z,21.70
2023-07-18T08:50:27.625Z,21.79
2023-07-18T08:52:54.527Z,21.85
2023-07-18T08:55:23.051Z,21.93
2023-07-18T08:57:52.034Z,22.00
2023-07-18T09:00:22.222Z,22.06
2023-07-18T09:02:52.197Z,22.16
2023-07-18T09:05:33.308Z,22.22
2023-07-18T09:08:01.477Z,22.28
2023-07-18T09:10:28.668Z,22.30
2023-07-18T09:12:56.492Z,22.34
2023-07-18T09:15:23.397Z,22.39
2023-07-18T09:17:55.892Z,22.42
2023-07-18T09:20:24.330Z,22.46
2023-07-18T09:22:53.582Z,22.50
2023-07-18T09:25:20.728Z,22.56
2023-07-18T09:27:51.170Z,22.64
2023-07-18T09:30:24.664Z,22.68
2023-07-18T09:32:52.726Z,22.68
2023-07-18T09:35:19.762Z,22.72
2023-07-18T09:37:48.377Z,22.76
2023-07-18T09:40:16.604Z,22.78
2023-07-18T09:42:47.634Z,22.80
2023-07-18T09:45:16.730Z,22.85
2023-07-18T09:47:44.636Z,22.89
2023-07-18T09:50:15.594Z,22.92
2023-07-18T09:52:50.941Z,22.97
2023-07-18T09:55:26.055Z,23.02
2023-07-18T09:57:55.787Z,23.06
2023-07-18T10:00:24.943Z,23.11
2023-07-18T10:02:54.224Z,23.18
2023-07-18T10:05:21.318Z,23.21
2023-07-18T10:07:48.482Z,23.24
2023-07-18T10:10:15.511Z,23.27
2023-07-18T10:13:02.134Z,23.30
2023-07-18T10:15:29.865Z,23.35
2023-07-18T10:18:16.603Z,23.38
2023-07-18T10:20:58.250Z,23.42
2023-07-18T10:23:43.516Z,23.46
2023-07-18T10:26:10.948Z,23.50
2023-07-18T10:28:48.694Z,23.56
2023-07-18T10:31:35.656Z,23.58
2023-07-18T10:34:15.549Z,23.66
2023-07-18T10:36:59.877Z,23.67
2023-07-18T10:39:51.068Z,23.70
2023-07-18T10:42:26.068Z,23.74
2023-07-18T10:44:59.804Z,23.77
2023-07-18T10:47:28.369Z,23.80
2023-07-18T10:49:55.877Z,23.80
2023-07-18T10:52:23.214Z,23.80
2023-07-18T10:54:59.124Z,23.81
2023-07-18T10:57:26.752Z,23.84
2023-07-18T10:59:53.899Z,23.87
2023-07-18T11:02:22.084Z,23.90
2023-07-18T11:04:49.847Z,23.90
2023-07-18T11:07:16.707Z,23.94
2023-07-18T11:09:43.943Z,23.95
2023-07-18T11:12:20.519Z,23.95
2023-07-18T11:14:47.812Z,23.97
2023-07-18T11:17:18.365Z,23.98
2023-07-18T11:19:45.532Z,24.01
2023-07-18T11:22:13.632Z,24.02
2023-07-18T11:24:42.246Z,24.01
2023-07-18T11:27:27.680Z,24.01
2023-07-18T11:30:01.498Z,24.04
2023-07-18T11:32:46.627Z,24.05
2023-07-18T11:35:20.216Z,24.14
2023-07-18T11:37:47.991Z,24.19
2023-07-18T11:40:26.977Z,24.20
2023-07-18T11:42:59.437Z,24.24
2023-07-18T11:45:28.634Z,24.26
2023-07-18T11:47:57.483Z,24.28
2023-07-18T11:50:29.832Z,24.34
2023-07-18T11:52:59.639Z,24.37
2023-07-18T11:55:26.792Z,24.43
2023-07-18T11:57:53.704Z,24.44
2023-07-18T12:00:21.050Z,24.47
2023-07-18T12:02:49.411Z,24.48
2023-07-18T12:05:17.678Z,24.48
2023-07-18T12:07:48.702Z,24.47
2023-07-18T12:10:19.975Z,24.48
2023-07-18T12:12:46.851Z,24.47
2023-07-18T12:15:14.661Z,24.48
2023-07-18T12:17:41.815Z,24.48
2023-07-18T12:20:09.546Z,24.49
2023-07-18T12:22:38.838Z,24.50
2023-07-18T12:25:06.267Z,24.52
2023-07-18T12:27:33.383Z,24.54
2023-07-18T12:30:00.350Z,24.56
2023-07-18T12:32:31.275Z,24.58
2023-07-18T12:34:59.134Z,24.62
2023-07-18T12:37:26.173Z,24.66
2023-07-18T12:39:53.299Z,24.65
2023-07-18T12:42:20.282Z,24.64
2023-07-18T12:44:47.896Z,24.69
2023-07-18T12:47:15.197Z,24.70
2023-07-18T12:52:14.239Z,24.67
2023-07-18T12:54:41.985Z,24.64
2023-07-18T12:57:09.155Z,24.65
2023-07-18T12:59:36.113Z,24.67
2023-07-18T13:02:03.282Z,24.72
2023-07-18T13:04:30.564Z,24.75
2023-07-18T13:06:57.662Z,24.79
2023-07-18T13:09:24.776Z,24.77
2023-07-18T13:11:52.769Z,24.77
2023-07-18T13:14:21.537Z,24.78
2023-07-18T13:16:49.868Z,24.80
2023-07-18T13:19:16.996Z,24.84
2023-07-18T13:21:44.470Z,24.89
2023-07-18T13:24:11.390Z,24.90
2023-07-18T13:26:38.626Z,24.90
2023-07-18T13:29:05.522Z,24.88
2023-07-18T13:31:34.917Z,24.87
2023-07-18T13:34:05.656Z,24.88
2023-07-18T13:36:33.386Z,24.88
2023-07-18T13:39:00.337Z,24.84
2023-07-18T13:41:27.352Z,24.84
2023-07-18T13:43:54.343Z,24.84
2023-07-18T13:46:21.477Z,24.80
2023-07-18T13:48:49.449Z,24.78
2023-07-18T13:51:16.565Z,24.75
2023-07-18T13:53:46.481Z,24.81
2023-07-18T13:56:13.436Z,24.77
2023-07-18T13:58:40.302Z,24.77
2023-07-18T14:01:07.177Z,24.72
2023-07-18T14:03:36.435Z,24.73
2023-07-18T14:06:04.595Z,24.75
2023-07-18T14:08:32.042Z,24.75
2023-07-18T14:10:59.360Z,24.75
2023-07-18T14:13:27.398Z,24.73
2023-07-18T14:15:54.348Z,24.72
2023-07-18T14:18:21.276Z,24.72
2023-07-18T14:20:48.159Z,24.75
2023-07-18T14:23:15.094Z,24.75
2023-07-18T14:25:41.989Z,24.75
2023-07-18T14:28:08.940Z,24.74
2023-07-18T14:30:35.775Z,24.75
2023-07-18T14:35:33.554Z,24.75
2023-07-18T14:38:00.568Z,24.71
2023-07-18T14:40:27.584Z,24.71
2023-07-18T14:42:54.533Z,24.70
2023-07-18T14:45:21.747Z,24.70
2023-07-18T14:47:48.802Z,24.72
2023-07-18T14:50:16.911Z,24.67
2023-07-18T14:52:44.032Z,24.66
2023-07-18T14:55:11.159Z,24.63
2023-07-18T14:57:38.085Z,24.65
2023-07-18T15:00:06.466Z,24.63
2023-07-18T15:02:33.604Z,24.61
2023-07-18T15:05:00.912Z,24.59
2023-07-18T15:07:28.662Z,24.54
2023-07-18T15:09:55.561Z,24.52
2023-07-18T15:12:22.777Z,24.50
2023-07-18T15:14:49.821Z,24.53
2023-07-18T15:17:16.773Z,24.46
2023-07-18T15:19:43.756Z,24.49
2023-07-18T15:22:10.673Z,24.44
2023-07-18T15:24:37.670Z,24.44
2023-07-18T15:27:04.722Z,24.46
2023-07-18T15:29:31.578Z,24.46
2023-07-18T15:31:58.517Z,24.43
2023-07-18T15:34:25.394Z,24.41
2023-07-18T15:36:52.285Z,24.38
2023-07-18T15:39:19.210Z,24.36
2023-07-18T15:41:46.086Z,24.32
2023-07-18T15:44:12.973Z,24.33
2023-07-18T15:46:39.911Z,24.31
2023-07-18T15:49:07.304Z,24.24
2023-07-18T15:51:34.733Z,24.26
2023-07-18T15:54:04.214Z,24.27
2023-07-18T15:56:31.190Z,24.26
2023-07-18T15:58:58.150Z,24.25
2023-07-18T16:01:25.672Z,24.21
2023-07-18T16:03:52.659Z,24.24
2023-07-18T16:06:20.473Z,24.21
2023-07-18T16:08:47.715Z,24.14
2023-07-18T16:11:14.985Z,24.13
2023-07-18T16:13:43.611Z,24.13
2023-07-18T16:16:11.527Z,24.10
2023-07-18T16:18:58.307Z,24.16
2023-07-18T16:21:25.776Z,24.12
2023-07-18T16:23:53.107Z,24.12
2023-07-18T16:26:20.987Z,24.05
2023-07-18T16:28:49.957Z,24.05
2023-07-18T16:31:17.879Z,24.04
2023-07-18T16:33:44.852Z,24.03
2023-07-18T16:36:11.826Z,24.01
2023-07-18T16:38:38.714Z,23.95
2023-07-18T16:41:05.961Z,23.94
2023-07-18T16:43:32.857Z,23.89
2023-07-18T16:45:59.727Z,23.86
2023-07-18T16:48:29.584Z,23.83
2023-07-18T16:50:57.176Z,23.80
2023-07-18T16:53:24.197Z,23.76
2023-07-18T16:55:52.638Z,23.73
2023-07-18T16:58:20.255Z,23.71
2023-07-18T17:00:47.604Z,23.71
2023-07-18T17:03:15.088Z,23.70
2023-07-18T17:05:42.687Z,23.70
2023-07-18T17:08:09.583Z,23.69
2023-07-18T17:10:36.420Z,23.68
2023-07-18T17:13:03.309Z,23.66
2023-07-18T17:15:30.299Z,23.66
2023-07-18T17:17:57.275Z,23.65
2023-07-18T17:20:24.340Z,23.64
2023-07-18T17:22:51.405Z,23.61
2023-07-18T17:25:18.339Z,23.60
2023-07-18T17:27:45.673Z,23.60
2023-07-18T17:30:12.697Z,23.58
2023-07-18T17:32:39.636Z,23.55
2023-07-18T17:35:06.918Z,23.52
2023-07-18T17:37:33.760Z,23.51
2023-07-18T17:40:02.107Z,23.49
2023-07-18T17:42:29.333Z,23.45
2023-07-18T17:44:57.601Z,23.43
2023-07-18T17:47:24.572Z,23.40
2023-07-18T17:49:51.461Z,23.38
2023-07-18T17:52:18.406Z,23.34
2023-07-18T17:54:46.643Z,23.36
2023-07-18T17:57:14.265Z,23.32
2023-07-18T17:59:43.062Z,23.29
2023-07-18T18:02:10.681Z,23.25
2023-07-18T18:04:38.025Z,23.22
2023-07-18T18:07:05.811Z,23.19
2023-07-18T18:09:33.006Z,23.17
2023-07-18T18:12:00.294Z,23.11
2023-07-18T18:14:27.204Z,23.07
2023-07-18T18:16:55.137Z,23.03
2023-07-18T18:19:22.193Z,22.99
2023-07-18T18:21:49.054Z,22.97
2023-07-18T18:24:16.026Z,22.93
2023-07-18T18:26:44.591Z,22.87
2023-07-18T18:29:11.572Z,22.86
2023-07-18T18:31:38.476Z,22.84
2023-07-18T18:34:05.380Z,22.83
2023-07-18T18:36:33.939Z,22.82
2023-07-18T18:39:01.259Z,22.79
2023-07-18T18:41:28.279Z,22.77
2023-07-18T18:43:55.246Z,22.75
2023-07-18T18:46:22.150Z,22.74
2023-07-18T18:48:49.105Z,22.71
2023-07-18T18:51:16.057Z,22.69
2023-07-18T18:53:42.918Z,22.68
2023-07-18T18:56:09.817Z,22.69
2023-07-18T18:58:36.722Z,22.68
2023-07-18T19:01:03.880Z,22.69
2023-07-18T19:03:31.446Z,22.64
2023-07-18T19:05:58.589Z,22.62
2023-07-18T19:08:25.506Z,22.58
2023-07-18T19:11:05.064Z,22.57
2023-07-18T19:13:34.515Z,22.51
2023-07-18T19:16:01.529Z,22.49
2023-07-18T19:18:28.345Z,22.45
2023-07-18T19:20:55.236Z,22.45
2023-07-18T19:23:22.165Z,22.41
2023-07-18T19:25:49.183Z,22.39
2023-07-18T19:28:16.031Z,22.34
2023-07-18T19:30:42.963Z,22.31
2023-07-18T19:33:10.576Z,22.31
2023-07-18T19:35:37.642Z,22.31
2023-07-18T19:38:05.329Z,22.26
2023-07-18T19:40:32.511Z,22.22
2023-07-18T19:42:59.404Z,22.19
2023-07-18T19:45:26.388Z,22.12
2023-07-18T19:47:53.393Z,22.17
2023-07-18T19:50:20.538Z,22.10
2023-07-18T19:52:47.470Z,22.07
2023-07-18T19:55:14.323Z,22.07
2023-07-18T19:57:41.252Z,22.06
2023-07-18T20:00:08.943Z,22.06
2023-07-18T20:02:35.944Z,21.95
2023-07-18T20:05:02.871Z,21.90
2023-07-18T20:07:29.746Z,21.91
2023-07-18T20:09:56.685Z,21.89
2023-07-18T20:12:23.577Z,21.87
2023-07-18T20:14:50.534Z,21.83
2023-07-18T20:17:17.581Z,21.84
2023-07-18T20:19:45.678Z,21.75
2023-07-18T20:22:12.831Z,21.77
2023-07-18T20:24:39.722Z,21.77
2023-07-18T20:27:06.665Z,21.83
2023-07-18T20:29:33.599Z,21.78
2023-07-18T20:32:00.485Z,21.81
2023-07-18T20:34:27.380Z,21.72
2023-07-18T20:36:54.288Z,21.74
2023-07-18T20:39:21.301Z,21.74
2023-07-18T20:41:48.215Z,21.71
2023-07-18T20:44:15.782Z,21.70
2023-07-18T20:46:44.923Z,21.70
2023-07-18T20:49:12.366Z,21.65
2023-07-18T20:51:40.783Z,21.66
2023-07-18T20:54:07.705Z,21.62
2023-07-18T20:56:35.117Z,21.64
2023-07-18T20:59:04.618Z,21.65
2023-07-18T21:01:32.963Z,21.58
2023-07-18T21:03:59.951Z,21.71
2023-07-18T21:06:27.382Z,21.64
2023-07-18T21:08:54.259Z,21.65
2023-07-18T21:11:21.554Z,21.71
2023-07-18T21:13:48.826Z,21.78
2023-07-18T21:16:15.948Z,21.76
2023-07-18T21:18:43.091Z,21.75
2023-07-18T21:21:09.915Z,21.75
2023-07-18T21:23:36.760Z,21.72
2023-07-18T21:26:04.365Z,21.74
2023-07-18T21:28:31.575Z,21.65
2023-07-18T21:30:58.594Z,21.63
2023-07-18T21:33:25.882Z,21.60
2023-07-18T21:35:52.833Z,21.54
2023-07-18T21:38:20.758Z,21.61
2023-07-18T21:40:47.692Z,21.58
2023-07-18T21:43:14.658Z,21.64
2023-07-18T21:45:41.681Z,21.64
2023-07-18T21:48:08.813Z,21.64
2023-07-18T21:50:36.546Z,21.62
2023-07-18T21:53:03.406Z,21.66
2023-07-18T21:55:30.361Z,21.68
2023-07-18T21:57:57.265Z,21.63
2023-07-18T22:00:24.304Z,21.70
2023-07-18T22:02:51.260Z,21.64
2023-07-18T22:05:18.259Z,21.61
2023-07-18T22:07:45.175Z,21.65
2023-07-18T22:10:12.138Z,21.65
2023-07-18T22:12:39.308Z,21.59
2023-07-18T22:15:07.014Z,21.66
2023-07-18T22:17:34.056Z,21.63
2023-07-18T22:20:00.972Z,21.56
2023-07-18T22:22:27.873Z,21.56
2023-07-18T22:24:54.827Z,21.50
2023-07-18T22:27:22.102Z,21.54
2023-07-18T22:29:49.054Z,21.49
2023-07-18T22:32:15.925Z,21.57
2023-07-18T22:34:42.851Z,21.54
2023-07-18T22:37:09.739Z,21.51
2023-07-18T22:39:37.976Z,21.53
2023-07-18T22:42:15.662Z,21.48
2023-07-18T22:44:46.212Z,21.57
2023-07-18T22:47:13.479Z,21.46
2023-07-18T22:49:40.628Z,21.51
2023-07-18T22:52:08.289Z,21.54
2023-07-18T22:54:36.286Z,21.54
2023-07-18T22:57:03.466Z,21.58
2023-07-18T22:59:30.342Z,21.53
2023-07-18T23:01:57.992Z,21.57
2023-07-18T23:04:24.899Z,21.55
2023-07-18T23:06:51.750Z,21.60
2023-07-18T23:09:19.792Z,21.58
2023-07-18T23:11:47.538Z,21.61
2023-07-18T23:14:14.512Z,21.47
2023-07-18T23:16:41.370Z,21.43
2023-07-18T23:19:08.325Z,21.38
2023-07-18T23:21:35.164Z,21.43
2023-07-18T23:24:02.382Z,21.41
2023-07-18T23:26:29.267Z,21.42
2023-07-18T23:28:56.132Z,21.46
2023-07-18T23:31:23.414Z,21.44
2023-07-18T23:33:50.569Z,21.40
2023-07-18T23:36:17.393Z,21.31
2023-07-18T23:38:44.304Z,21.33
2023-07-18T23:41:11.212Z,21.32
2023-07-18T23:43:38.369Z,21.19
2023-07-18T23:46:05.269Z,21.21
2023-07-18T23:48:32.211Z,21.07
2023-07-18T23:50:59.220Z,21.17
2023-07-18T23:53:26.274Z,21.11
2023-07-18T23:55:53.381Z,21.08
2023-07-18T23:58:20.313Z,21.07
